sensor_id;sensor_type;location;lat;lon;timestamp;pressure;altitude;pressure_sealevel;temperature;humidity
70943;BME280;59154;51.970;5.650;2023-06-14T08:35:03;101600;;;24.59442;56.2
70943;BME280;59154;51.970;5.650;2023-06-14T08:40:20;101600;;;24.59442;56.4
70943;BME280;59154;51.970;5.650;2023-06-14T08:45:03;101600;;;24.61985;55.4
70943;BME280;59154;51.970;5.650;2023-06-14T08:50:04;101600;;;24.61477;55.2
70943;BME280;59154;51.970;5.650;2023-06-14T09:15:04;101600;;;24.77245;55.5
70943;BME280;59154;51.970;5.650;2023-06-14T10:10:03;101600;;;24.95556;54.5
70943;BME280;59154;51.970;5.650;2023-06-14T10:15:04;101600;;;24.95556;55.3
70943;BME280;59154;51.970;5.650;2023-06-14T10:20:14;101600;;;24.9403;55.9
70943;BME280;59154;51.970;5.650;2023-06-14T10:25:06;101600;;;24.98099;55.4
70943;BME280;59154;51.970;5.650;2023-06-14T10:30:06;101600;;;24.99116;55.6
70943;BME280;59154;51.970;5.650;2023-06-14T10:35:05;101600;;;24.99116;55.7
70943;BME280;59154;51.970;5.650;2023-06-14T10:40:05;101600;;;25.03185;55.8
70943;BME280;59154;51.970;5.650;2023-06-14T10:45:04;101600;;;25.08272;55.2
70943;BME280;59154;51.970;5.650;2023-06-14T10:50:05;101600;;;25.05729;55.7
70943;BME280;59154;51.970;5.650;2023-06-14T11:25:03;101600;;;25.09289;56.1
70943;BME280;59154;51.970;5.650;2023-06-14T11:30:06;101600;;;25.11832;54.6
70943;BME280;59154;51.970;5.650;2023-06-14T11:35:02;101600;;;25.11832;55.0
70943;BME280;59154;51.970;5.650;2023-06-14T11:40:04;101600;;;25.1285;55.3
70943;BME280;59154;51.970;5.650;2023-06-14T11:45:16;101600;;;25.1285;55.2
70943;BME280;59154;51.970;5.650;2023-06-14T11:50:04;101600;;;25.14884;55.3
70943;BME280;59154;51.970;5.650;2023-06-14T11:55:03;101600;;;25.13867;55.2
70943;BME280;59154;51.970;5.650;2023-06-14T12:40:16;101600;;;25.08272;55.3
70943;BME280;59154;51.970;5.650;2023-06-14T12:45:10;101600;;;25.0522;54.3
70943;BME280;59154;51.970;5.650;2023-06-14T15:20:03;101600;;;25.30652;56.4
70943;BME280;59154;51.970;5.650;2023-06-14T15:25:02;101600;;;25.3879;56.4
70943;BME280;59154;51.970;5.650;2023-06-14T15:30:02;101600;;;26.01354;53.9
70943;BME280;59154;51.970;5.650;2023-06-14T15:35:01;101600;;;26.45606;53.6
70943;BME280;59154;51.970;5.650;2023-06-14T15:40:03;101600;;;26.76125;53.0
70943;BME280;59154;51.970;5.650;2023-06-14T15:45:08;101600;;;27.17835;51.6
70943;BME280;59154;51.970;5.650;2023-06-14T15:50:03;101600;;;27.27499;50.0
70943;BME280;59154;51.970;5.650;2023-06-14T15:55:02;101600;;;27.35638;50.5
70943;BME280;59154;51.970;5.650;2023-06-14T16:00:04;101600;;;27.4225;50.5
70943;BME280;59154;51.970;5.650;2023-06-14T16:05:03;101600;;;27.52424;51.3
70943;BME280;59154;51.970;5.650;2023-06-14T16:10:03;101600;;;27.54458;51.3
70943;BME280;59154;51.970;5.650;2023-06-14T16:15:03;101600;;;27.60562;51.2
70943;BME280;59154;51.970;5.650;2023-06-14T16:20:05;101600;;;27.63614;51.7
70943;BME280;59154;51.970;5.650;2023-06-14T16:25:03;101600;;;27.65649;51.1
70943;BME280;59154;51.970;5.650;2023-06-14T16:30:04;101600;;;27.67683;51.4
70943;BME280;59154;51.970;5.650;2023-06-14T16:35:02;101600;;;27.71753;51.4
70943;BME280;59154;51.970;5.650;2023-06-14T16:40:03;101600;;;27.73279;51.5
70943;BME280;59154;51.970;5.650;2023-06-14T16:45:03;101600;;;27.75822;51.7
70943;BME280;59154;51.970;5.650;2023-06-14T16:50:04;101600;;;27.77856;51.8
70943;BME280;59154;51.970;5.650;2023-06-14T16:55:03;101600;;;27.79891;52.7
70943;BME280;59154;51.970;5.650;2023-06-14T17:00:04;101600;;;27.79891;52.0
70943;BME280;59154;51.970;5.650;2023-06-14T17:05:02;101600;;;27.86504;52.2
70943;BME280;59154;51.970;5.650;2023-06-14T17:10:03;101600;;;27.84469;52.4
70943;BME280;59154;51.970;5.650;2023-06-14T17:25:10;101600;;;27.98711;52.3
70943;BME280;59154;51.970;5.650;2023-06-14T17:30:03;101600;;;28.0685;52.0
70943;BME280;59154;51.970;5.650;2023-06-14T17:35:03;101600;;;28.20075;51.9
70943;BME280;59154;51.970;5.650;2023-06-14T18:10:03;101600;;;29.54871;49.7
70943;BME280;59154;51.970;5.650;2023-06-14T18:45:03;101600;;;29.60975;50.6
70943;BME280;59154;51.970;5.650;2023-06-14T18:50:09;101600;;;29.55889;50.7
70943;BME280;59154;51.970;5.650;2023-06-14T18:55:03;101600;;;29.51819;50.9
70943;BME280;59154;51.970;5.650;2023-06-14T20:00:03;101700;;;27.44285;52.8
70943;BME280;59154;51.970;5.650;2023-06-14T20:05:02;101700;;;27.20887;54.1
70943;BME280;59154;51.970;5.650;2023-06-14T20:15:04;101700;;;26.99523;53.5
70943;BME280;59154;51.970;5.650;2023-06-14T20:20:04;101700;;;26.89859;54.4
70943;BME280;59154;51.970;5.650;2023-06-14T20:25:09;101700;;;26.66461;54.5
70943;BME280;59154;51.970;5.650;2023-06-14T20:30:05;101700;;;26.59849;55.2
70943;BME280;59154;51.970;5.650;2023-06-14T20:50:10;101700;;;26.04406;47.6
70943;BME280;59154;51.970;5.650;2023-06-14T20:55:02;101700;;;25.9169;46.4
70943;BME280;59154;51.970;5.650;2023-06-14T21:32:16;101700;;;24.99625;47.4
70943;BME280;59154;51.970;5.650;2023-06-14T21:40:04;101700;;;24.83857;47.7
70943;BME280;59154;51.970;5.650;2023-06-14T21:45:02;101700;;;24.63511;47.2
70943;BME280;59154;51.970;5.650;2023-06-14T21:50:03;101700;;;24.49269;47.3
70943;BME280;59154;51.970;5.650;2023-06-14T21:55:02;101700;;;24.4164;48.7
70943;BME280;59154;51.970;5.650;2023-06-14T22:00:03;101700;;;24.37062;48.2
70943;BME280;59154;51.970;5.650;2023-06-14T22:05:03;101700;;;24.15699;48.7
70943;BME280;59154;51.970;5.650;2023-06-14T22:10:04;101800;;;24.07561;48.2
70943;BME280;59154;51.970;5.650;2023-06-14T22:15:02;101800;;;23.96371;48.3
70943;BME280;59154;51.970;5.650;2023-06-14T22:20:04;101800;;;23.83147;49.0
70943;BME280;59154;51.970;5.650;2023-06-14T22:25:03;101800;;;23.58732;49.1
70943;BME280;59154;51.970;5.650;2023-06-14T22:30:03;101800;;;23.44999;48.9
70943;BME280;59154;51.970;5.650;2023-06-14T22:35:03;101800;;;23.42456;49.5
70943;BME280;59154;51.970;5.650;2023-06-14T22:40:07;101800;;;23.25671;49.3
70943;BME280;59154;51.970;5.650;2023-06-14T23:35:04;101800;;;22.77351;50.0
70943;BME280;59154;51.970;5.650;2023-06-14T23:40:09;101800;;;22.82437;50.4
70943;BME280;59154;51.970;5.650;2023-06-14T23:45:03;101800;;;22.75825;50.1
70943;BME280;59154;51.970;5.650;2023-06-14T23:50:03;101800;;;22.75316;50.1
70943;BME280;59154;51.970;5.650;2023-06-14T23:55:03;101800;;;22.70739;50.0
